createdAt,value
2023-05-07T00:00:09.307Z,1.70
2023-05-07T00:02:38.977Z,1.40
2023-05-07T00:05:07.641Z,1.58
2023-05-07T00:07:35.566Z,1.60
2023-05-07T00:10:05.172Z,1.40
2023-05-07T00:12:34.688Z,1.20
2023-05-07T00:15:04.630Z,1.60
2023-05-07T00:17:34.448Z,1.70
2023-05-07T00:20:02.658Z,1.73
2023-05-07T00:22:31.306Z,1.60
2023-05-07T00:24:59.728Z,2.05
2023-05-07T00:27:27.469Z,1.70
2023-05-07T00:29:55.293Z,1.80
2023-05-07T00:32:23.049Z,1.90
2023-05-07T00:34:52.066Z,2.08
2023-05-07T00:37:19.878Z,2.22
2023-05-07T00:39:47.577Z,1.75
2023-05-07T00:42:16.151Z,1.70
2023-05-07T00:44:44.201Z,1.60
2023-05-07T00:47:12.283Z,1.77
2023-05-07T00:49:43.442Z,1.63
2023-05-07T00:52:16.563Z,2.03
2023-05-07T00:54:45.387Z,2.15
2023-05-07T00:57:13.571Z,2.17
2023-05-07T00:59:41.912Z,2.10
2023-05-07T01:02:09.738Z,1.70
2023-05-07T01:04:37.760Z,1.73
2023-05-07T01:07:06.865Z,1.60
2023-05-07T01:09:36.442Z,1.77
2023-05-07T01:12:05.470Z,1.63
2023-05-07T01:14:34.100Z,1.70
2023-05-07T01:17:02.284Z,1.77
2023-05-07T01:19:31.265Z,1.50
2023-05-07T01:22:09.036Z,1.80
2023-05-07T01:24:46.625Z,2.28
2023-05-07T01:27:16.280Z,2.30
2023-05-07T01:29:44.705Z,2.00
2023-05-07T01:32:14.681Z,2.40
2023-05-07T01:34:44.260Z,1.85
2023-05-07T01:37:13.551Z,2.20
2023-05-07T01:39:42.081Z,2.13
2023-05-07T01:42:10.028Z,2.65
2023-05-07T01:44:37.917Z,2.10
2023-05-07T01:47:06.975Z,2.10
2023-05-07T01:49:35.268Z,2.10
2023-05-07T01:52:03.280Z,2.30
2023-05-07T01:54:31.640Z,1.90
2023-05-07T01:57:01.072Z,2.22
2023-05-07T01:59:28.885Z,2.25
2023-05-07T02:01:56.669Z,2.25
2023-05-07T02:04:25.700Z,2.20
2023-05-07T02:06:54.224Z,2.17
2023-05-07T02:09:23.131Z,2.10
2023-05-07T02:11:53.051Z,2.40
2023-05-07T02:14:22.651Z,2.30
2023-05-07T02:16:50.680Z,2.35
2023-05-07T02:19:19.240Z,2.60
2023-05-07T02:21:47.006Z,2.38
2023-05-07T02:24:15.089Z,2.30
2023-05-07T02:26:42.828Z,2.00
2023-05-07T02:29:10.676Z,2.58
2023-05-07T02:31:39.920Z,2.58
2023-05-07T02:34:07.789Z,4.28
2023-05-07T02:36:35.876Z,6.85
2023-05-07T02:39:11.178Z,4.75
2023-05-07T02:41:39.270Z,4.60
2023-05-07T02:44:07.169Z,4.45
2023-05-07T02:46:35.241Z,5.45
2023-05-07T02:49:08.322Z,4.90
2023-05-07T02:51:36.241Z,3.78
2023-05-07T02:54:06.947Z,2.60
2023-05-07T02:56:34.688Z,2.53
2023-05-07T02:59:02.473Z,2.40
2023-05-07T03:01:35.075Z,2.53
2023-05-07T03:04:05.838Z,2.03
2023-05-07T03:06:33.591Z,2.13
2023-05-07T03:09:01.329Z,2.28
2023-05-07T03:11:29.397Z,2.63
2023-05-07T03:13:57.128Z,3.00
2023-05-07T03:16:25.027Z,3.17
2023-05-07T03:18:52.892Z,2.45
2023-05-07T03:21:20.885Z,2.72
2023-05-07T03:23:48.666Z,3.17
2023-05-07T03:26:16.334Z,3.65
2023-05-07T03:28:45.812Z,4.85
2023-05-07T03:31:15.745Z,4.45
2023-05-07T03:33:58.874Z,3.75
2023-05-07T03:36:30.550Z,3.25
2023-05-07T03:38:58.695Z,3.08
2023-05-07T03:41:34.094Z,3.38
2023-05-07T03:44:02.425Z,3.53
2023-05-07T03:46:30.294Z,2.90
2023-05-07T03:48:58.162Z,3.20
2023-05-07T03:51:27.743Z,2.15
2023-05-07T03:53:58.010Z,3.22
2023-05-07T03:58:59.106Z,2.47
2023-05-07T04:01:27.939Z,2.25
2023-05-07T04:03:56.813Z,2.35
2023-05-07T04:06:26.269Z,2.00
2023-05-07T04:08:54.491Z,1.85
2023-05-07T04:11:22.424Z,2.20
2023-05-07T04:13:50.633Z,2.10
2023-05-07T04:18:49.942Z,1.95
2023-05-07T04:21:20.776Z,2.03
2023-05-07T04:26:17.653Z,2.78
2023-05-07T04:28:46.581Z,3.50
2023-05-07T04:31:16.231Z,2.45
2023-05-07T04:33:44.223Z,2.10
2023-05-07T04:36:15.257Z,2.00
2023-05-07T04:38:51.623Z,2.10
2023-05-07T04:41:21.685Z,1.80
2023-05-07T04:43:49.870Z,2.78
2023-05-07T04:46:19.127Z,3.50
2023-05-07T04:48:47.448Z,3.85
2023-05-07T04:51:15.279Z,2.63
2023-05-07T04:53:44.186Z,2.40
2023-05-07T04:56:13.147Z,2.00
2023-05-07T04:58:43.724Z,1.90
2023-05-07T05:01:12.356Z,1.67
2023-05-07T05:03:40.802Z,2.00
2023-05-07T05:06:09.413Z,2.22
2023-05-07T05:08:37.381Z,2.50
2023-05-07T05:11:05.898Z,2.95
2023-05-07T05:13:35.828Z,2.80
2023-05-07T05:16:10.473Z,2.97
2023-05-07T05:18:39.233Z,3.00
2023-05-07T05:21:07.256Z,3.42
2023-05-07T05:23:35.272Z,3.15
2023-05-07T05:26:03.515Z,3.42
2023-05-07T05:28:33.663Z,1.55
2023-05-07T05:31:01.911Z,2.60
2023-05-07T05:33:33.840Z,2.33
2023-05-07T05:38:34.330Z,2.13
2023-05-07T05:41:02.458Z,1.90
2023-05-07T05:43:31.537Z,2.00
2023-05-07T05:46:00.351Z,2.20
2023-05-07T05:48:30.345Z,1.90
2023-05-07T05:50:59.463Z,2.20
2023-05-07T05:53:27.163Z,1.83
2023-05-07T05:55:55.704Z,1.88
2023-05-07T05:58:23.457Z,1.83
2023-05-07T06:00:57.622Z,1.85
2023-05-07T06:03:27.332Z,2.00
2023-05-07T06:05:56.586Z,2.00
2023-05-07T06:08:24.439Z,1.80
2023-05-07T06:10:53.124Z,2.42
2023-05-07T06:13:21.021Z,2.20
2023-05-07T06:15:49.763Z,1.80
2023-05-07T06:18:17.536Z,1.85
2023-05-07T06:20:45.412Z,1.70
2023-05-07T06:23:21.171Z,1.45
2023-05-07T06:25:52.407Z,1.60
2023-05-07T06:28:23.899Z,1.67
2023-05-07T06:30:52.449Z,1.75
2023-05-07T06:33:20.827Z,1.70
2023-05-07T06:35:48.748Z,1.55
2023-05-07T06:38:16.803Z,1.60
2023-05-07T06:40:50.487Z,1.67
2023-05-07T06:43:18.331Z,1.75
2023-05-07T06:45:56.053Z,2.05
2023-05-07T06:48:24.224Z,2.50
2023-05-07T06:50:59.699Z,1.70
2023-05-07T06:53:29.347Z,1.65
2023-05-07T06:55:58.151Z,1.80
2023-05-07T06:58:26.699Z,1.60
2023-05-07T07:00:56.626Z,1.50
2023-05-07T07:03:25.127Z,1.60
2023-05-07T07:05:54.507Z,1.50
2023-05-07T07:08:23.502Z,1.65
2023-05-07T07:10:55.626Z,1.35
2023-05-07T07:13:23.688Z,1.98
2023-05-07T07:15:52.987Z,1.40
2023-05-07T07:18:21.269Z,1.33
2023-05-07T07:20:50.451Z,1.40
2023-05-07T07:23:19.609Z,1.20
2023-05-07T07:25:49.647Z,1.50
2023-05-07T07:28:18.483Z,1.50
2023-05-07T07:30:46.320Z,1.20
2023-05-07T07:33:14.115Z,1.20
2023-05-07T07:35:41.902Z,1.30
2023-05-07T07:38:09.761Z,1.40
2023-05-07T07:40:37.667Z,1.20
2023-05-07T07:43:07.439Z,1.50
2023-05-07T07:45:35.919Z,1.40
2023-05-07T07:48:04.080Z,1.40
2023-05-07T07:50:44.362Z,1.25
2023-05-07T07:53:15.138Z,1.23
2023-05-07T07:55:43.451Z,1.55
2023-05-07T08:00:42.648Z,1.20
2023-05-07T08:03:13.021Z,1.00
2023-05-07T08:05:45.559Z,1.25
2023-05-07T08:08:13.723Z,1.60
2023-05-07T08:10:43.427Z,1.70
2023-05-07T08:13:20.151Z,1.38
2023-05-07T08:15:48.284Z,1.27
2023-05-07T08:18:16.373Z,1.30
2023-05-07T08:20:45.724Z,1.20
2023-05-07T08:23:17.553Z,1.17
2023-05-07T08:25:47.993Z,1.30
2023-05-07T08:28:16.827Z,1.40
2023-05-07T08:30:44.648Z,1.73
2023-05-07T08:33:12.688Z,1.73
2023-05-07T08:35:40.633Z,1.58
2023-05-07T08:38:11.689Z,1.42
2023-05-07T08:40:43.543Z,1.50
2023-05-07T08:43:20.623Z,1.38
2023-05-07T08:45:54.407Z,1.60
2023-05-07T08:48:28.279Z,2.15
2023-05-07T08:51:06.755Z,1.75
2023-05-07T08:53:36.412Z,1.88
2023-05-07T08:56:07.290Z,1.67
2023-05-07T08:58:36.782Z,1.90
2023-05-07T09:01:17.575Z,1.60
2023-05-07T09:03:49.188Z,1.60
2023-05-07T09:06:18.439Z,2.65
2023-05-07T09:08:56.528Z,3.47
2023-05-07T09:11:28.580Z,1.85
2023-05-07T09:14:02.192Z,1.60
2023-05-07T09:16:32.350Z,1.60
2023-05-07T09:19:02.019Z,1.55
2023-05-07T09:21:32.874Z,1.38
2023-05-07T09:24:06.198Z,1.50
2023-05-07T09:26:39.701Z,1.48
2023-05-07T09:29:11.154Z,1.60
2023-05-07T09:34:12.963Z,1.52
2023-05-07T09:36:43.391Z,1.37
2023-05-07T09:39:14.058Z,1.60
2023-05-07T09:41:47.676Z,1.45
2023-05-07T09:44:29.537Z,1.50
2023-05-07T09:47:00.694Z,1.67
2023-05-07T09:49:43.408Z,1.60
2023-05-07T09:52:18.133Z,1.60
2023-05-07T09:54:54.437Z,1.42
2023-05-07T09:57:26.727Z,1.40
2023-05-07T10:00:00.792Z,1.40
2023-05-07T10:02:36.386Z,1.63
2023-05-07T10:05:05.351Z,1.60
2023-05-07T10:07:36.362Z,1.73
2023-05-07T10:10:09.752Z,1.50
2023-05-07T10:12:43.340Z,1.65
2023-05-07T10:15:20.765Z,1.50
2023-05-07T10:17:54.337Z,1.50
2023-05-07T10:20:24.332Z,1.92
2023-05-07T10:22:58.280Z,1.67
2023-05-07T10:25:33.645Z,1.50
2023-05-07T10:28:12.591Z,1.40
2023-05-07T10:31:32.475Z,1.70
2023-05-07T10:34:01.907Z,1.80
2023-05-07T10:36:30.617Z,1.63
2023-05-07T10:38:59.880Z,1.40
2023-05-07T10:41:27.880Z,1.52
2023-05-07T10:43:56.014Z,1.40
2023-05-07T10:46:29.510Z,1.40
2023-05-07T10:49:09.049Z,1.17
2023-05-07T10:51:46.773Z,1.40
2023-05-07T10:54:24.796Z,2.60
2023-05-07T10:57:35.089Z,1.80
2023-05-07T11:00:38.006Z,1.52
2023-05-07T11:03:09.489Z,1.30
2023-05-07T11:06:14.849Z,1.30
2023-05-07T11:08:57.668Z,1.30
2023-05-07T11:11:56.786Z,1.27
2023-05-07T11:14:47.489Z,1.35
2023-05-07T11:17:22.228Z,1.55
2023-05-07T11:19:57.745Z,1.40
2023-05-07T11:22:58.000Z,1.23
2023-05-07T11:25:35.872Z,1.70
2023-05-07T11:28:13.629Z,1.48
2023-05-07T11:30:47.629Z,1.23
2023-05-07T11:33:19.798Z,1.10
2023-05-07T11:35:48.957Z,1.43
2023-05-07T11:38:20.432Z,1.15
2023-05-07T11:40:56.940Z,1.20
2023-05-07T11:43:24.723Z,1.45
2023-05-07T11:45:52.719Z,1.20
2023-05-07T11:48:24.697Z,1.23
2023-05-07T11:51:03.221Z,1.50
2023-05-07T11:53:41.219Z,1.60
2023-05-07T11:56:17.599Z,1.75
2023-05-07T11:58:47.654Z,1.50
2023-05-07T12:01:16.715Z,1.80
2023-05-07T12:03:48.755Z,1.50
2023-05-07T12:06:18.152Z,1.80
2023-05-07T12:08:48.205Z,1.40
2023-05-07T12:11:26.863Z,1.20
2023-05-07T12:13:59.388Z,1.48
2023-05-07T12:16:34.059Z,1.38
2023-05-07T12:19:01.997Z,1.27
2023-05-07T12:21:30.697Z,1.30
2023-05-07T12:23:59.002Z,1.10
2023-05-07T12:26:32.991Z,1.20
2023-05-07T12:29:01.621Z,1.27
2023-05-07T12:31:29.629Z,1.40
2023-05-07T12:33:59.649Z,0.98
2023-05-07T12:36:27.745Z,1.30
2023-05-07T12:38:56.526Z,1.10
2023-05-07T12:41:28.154Z,1.20
2023-05-07T12:43:58.850Z,1.30
2023-05-07T12:46:26.947Z,1.00
2023-05-07T12:48:55.288Z,1.20
2023-05-07T12:51:23.735Z,1.00
2023-05-07T12:53:51.616Z,1.60
2023-05-07T12:56:22.015Z,1.38
2023-05-07T12:58:51.833Z,1.20
2023-05-07T13:01:20.981Z,1.30
2023-05-07T13:03:51.451Z,1.15
2023-05-07T13:06:21.894Z,1.27
2023-05-07T13:08:49.743Z,1.10
2023-05-07T13:11:17.547Z,1.13
2023-05-07T13:13:45.348Z,1.20
2023-05-07T13:16:13.586Z,1.20
2023-05-07T13:18:48.605Z,1.10
2023-05-07T13:21:16.458Z,1.25
2023-05-07T13:23:45.357Z,1.30
2023-05-07T13:26:25.710Z,1.10
2023-05-07T13:28:55.738Z,1.27
2023-05-07T13:31:29.494Z,1.17
2023-05-07T13:34:04.236Z,1.13
2023-05-07T13:36:37.967Z,1.40
2023-05-07T13:39:07.447Z,1.30
2023-05-07T13:41:35.246Z,1.50
2023-05-07T13:44:03.208Z,1.80
2023-05-07T13:46:31.366Z,1.30
2023-05-07T13:48:59.268Z,1.50
2023-05-07T13:51:27.349Z,0.82
2023-05-07T13:53:55.334Z,0.70
2023-05-07T13:56:24.403Z,0.60
2023-05-07T13:58:59.995Z,0.50
2023-05-07T14:01:29.088Z,0.50
2023-05-07T14:04:00.850Z,0.98
2023-05-07T14:06:28.809Z,0.50
2023-05-07T14:08:59.038Z,0.50
2023-05-07T14:11:26.867Z,0.82
2023-05-07T14:13:54.574Z,0.90
2023-05-07T14:16:24.248Z,0.73
2023-05-07T14:18:52.037Z,0.60
2023-05-07T14:21:21.015Z,0.80
2023-05-07T14:23:51.407Z,0.80
2023-05-07T14:26:20.069Z,0.77
2023-05-07T14:28:49.958Z,0.60
2023-05-07T14:31:17.705Z,0.50
2023-05-07T14:33:46.955Z,0.90
2023-05-07T14:36:16.233Z,1.38
2023-05-07T14:38:44.591Z,1.13
2023-05-07T14:41:12.493Z,1.50
2023-05-07T14:43:40.225Z,1.40
2023-05-07T14:46:08.251Z,1.20
2023-05-07T14:48:37.370Z,1.30
2023-05-07T14:51:06.032Z,1.30
2023-05-07T14:53:34.004Z,1.45
2023-05-07T14:56:01.792Z,1.20
2023-05-07T14:58:31.097Z,1.70
2023-05-07T15:01:00.445Z,2.65
2023-05-07T15:03:31.943Z,4.18
2023-05-07T15:05:59.752Z,2.60
2023-05-07T15:08:28.523Z,1.70
2023-05-07T15:10:56.897Z,1.50
2023-05-07T15:13:25.317Z,2.20
2023-05-07T15:15:53.143Z,2.40
2023-05-07T15:18:22.732Z,1.60
2023-05-07T15:20:50.932Z,1.75
2023-05-07T15:23:20.329Z,1.40
2023-05-07T15:28:20.799Z,0.65
2023-05-07T15:30:48.650Z,0.60
2023-05-07T15:33:17.950Z,0.40
2023-05-07T15:35:46.854Z,0.38
2023-05-07T15:38:15.198Z,0.38
2023-05-07T15:40:44.019Z,0.30
2023-05-07T15:43:13.388Z,0.20
2023-05-07T15:45:43.983Z,0.20
2023-05-07T15:50:40.960Z,0.20
2023-05-07T15:53:11.103Z,0.30
2023-05-07T15:55:38.851Z,0.30
2023-05-07T15:58:08.123Z,0.20
2023-05-07T16:00:36.514Z,0.20
2023-05-07T16:03:04.446Z,0.20
2023-05-07T16:05:32.315Z,0.20
2023-05-07T16:08:06.492Z,0.30
2023-05-07T16:10:34.244Z,0.20
2023-05-07T16:13:04.097Z,0.20
2023-05-07T16:15:31.910Z,0.10
2023-05-07T16:18:01.477Z,0.10
2023-05-07T16:20:31.508Z,0.10
2023-05-07T16:22:59.323Z,0.20
2023-05-07T16:25:27.148Z,0.20
2023-05-07T16:27:55.967Z,0.15
2023-05-07T16:30:23.741Z,0.30
2023-05-07T16:32:53.227Z,0.30
2023-05-07T16:35:21.096Z,0.43
2023-05-07T16:37:48.843Z,0.35
2023-05-07T16:40:16.998Z,0.45
2023-05-07T16:42:46.447Z,0.45
2023-05-07T16:45:14.560Z,0.55
2023-05-07T16:47:49.132Z,0.35
2023-05-07T16:50:18.131Z,0.40
2023-05-07T16:52:45.896Z,0.40
2023-05-07T16:55:13.959Z,0.60
2023-05-07T16:57:43.352Z,0.50
2023-05-07T17:00:17.437Z,0.30
2023-05-07T17:02:48.250Z,0.30
2023-05-07T17:05:19.698Z,0.40
2023-05-07T17:07:47.582Z,0.30
2023-05-07T17:10:18.009Z,0.30
2023-05-07T17:12:47.955Z,0.30
2023-05-07T17:15:15.824Z,0.20
2023-05-07T17:17:45.972Z,0.30
2023-05-07T17:20:15.438Z,0.20
2023-05-07T17:22:43.321Z,0.25
2023-05-07T17:25:12.960Z,0.20
2023-05-07T17:27:45.739Z,0.20
2023-05-07T17:32:43.629Z,0.20
2023-05-07T17:35:11.493Z,0.10
2023-05-07T17:37:39.256Z,0.10
2023-05-07T17:40:07.956Z,0.20
2023-05-07T17:42:38.146Z,0.10
2023-05-07T17:45:06.784Z,0.20
2023-05-07T17:47:35.616Z,0.20
2023-05-07T17:50:10.413Z,0.10
2023-05-07T17:52:39.174Z,0.13
2023-05-07T17:55:08.412Z,0.10
2023-05-07T17:57:38.554Z,0.25
2023-05-07T18:00:12.048Z,0.60
2023-05-07T18:02:41.494Z,0.80
2023-05-07T18:05:09.868Z,0.90
2023-05-07T18:07:39.395Z,1.10
2023-05-07T18:10:08.735Z,1.13
2023-05-07T18:12:36.673Z,1.25
2023-05-07T18:15:05.192Z,1.25
2023-05-07T18:17:32.931Z,1.38
2023-05-07T18:20:00.736Z,1.00
2023-05-07T18:22:30.163Z,1.30
2023-05-07T18:24:58.135Z,1.00
2023-05-07T18:27:25.988Z,1.00
2023-05-07T18:29:53.842Z,1.23
2023-05-07T18:32:21.972Z,1.10
2023-05-07T18:34:52.138Z,1.25
2023-05-07T18:37:22.510Z,1.40
2023-05-07T18:39:51.331Z,1.30
2023-05-07T18:42:19.082Z,1.40
2023-05-07T18:44:52.268Z,1.27
2023-05-07T18:47:20.201Z,1.30
2023-05-07T18:49:48.094Z,1.70
2023-05-07T18:52:18.147Z,1.40
2023-05-07T18:54:46.004Z,1.30
2023-05-07T18:57:17.975Z,1.15
2023-05-07T18:59:45.817Z,0.80
2023-05-07T19:02:14.065Z,1.13
2023-05-07T19:04:41.940Z,1.63
2023-05-07T19:07:09.706Z,1.27
2023-05-07T19:09:38.189Z,1.40
2023-05-07T19:12:06.581Z,1.23
2023-05-07T19:14:34.533Z,1.20
2023-05-07T19:17:03.281Z,1.50
2023-05-07T19:19:31.014Z,1.40
2023-05-07T19:22:00.569Z,1.40
2023-05-07T19:24:28.274Z,1.60
2023-05-07T19:26:58.136Z,1.27
2023-05-07T19:29:25.962Z,1.30
2023-05-07T19:31:54.910Z,1.90
2023-05-07T19:34:22.863Z,2.15
2023-05-07T19:36:52.053Z,2.20
2023-05-07T19:39:21.484Z,1.83
2023-05-07T19:41:49.315Z,1.70
2023-05-07T19:44:17.119Z,2.00
2023-05-07T19:46:46.252Z,2.10
2023-05-07T19:49:14.226Z,1.80
2023-05-07T19:51:43.324Z,1.90
2023-05-07T19:54:11.069Z,1.70
2023-05-07T19:56:41.692Z,1.90
2023-05-07T19:59:09.447Z,1.70
2023-05-07T20:01:39.163Z,1.50
2023-05-07T20:04:07.262Z,1.35
2023-05-07T20:06:36.317Z,1.58
2023-05-07T20:09:04.339Z,1.60
2023-05-07T20:11:37.228Z,1.73
2023-05-07T20:14:06.779Z,1.73
2023-05-07T20:16:41.825Z,1.70
2023-05-07T20:19:09.511Z,1.67
2023-05-07T20:21:37.332Z,1.77
2023-05-07T20:24:07.075Z,2.30
2023-05-07T20:26:36.592Z,2.10
2023-05-07T20:29:04.344Z,2.00
2023-05-07T20:31:35.034Z,2.20
2023-05-07T20:34:03.073Z,1.92
2023-05-07T20:36:30.844Z,1.95
2023-05-07T20:38:58.603Z,2.00
2023-05-07T20:41:26.804Z,1.98
2023-05-07T20:43:54.671Z,2.10
2023-05-07T20:46:23.387Z,2.03
2023-05-07T20:48:51.697Z,2.42
2023-05-07T20:51:19.383Z,1.95
2023-05-07T20:53:48.358Z,2.20
2023-05-07T20:56:16.340Z,2.00
2023-05-07T20:58:44.119Z,2.05
2023-05-07T21:01:13.772Z,1.90
2023-05-07T21:03:43.495Z,2.30
2023-05-07T21:06:11.255Z,2.28
2023-05-07T21:08:39.050Z,2.20
2023-05-07T21:11:06.876Z,2.28
2023-05-07T21:13:34.747Z,2.10
2023-05-07T21:16:02.444Z,2.30
2023-05-07T21:18:30.821Z,2.45
2023-05-07T21:20:58.615Z,2.60
2023-05-07T21:23:26.438Z,2.70
2023-05-07T21:25:54.162Z,2.70
2023-05-07T21:28:21.971Z,2.88
2023-05-07T21:30:49.800Z,3.00
2023-05-07T21:33:17.699Z,2.85
2023-05-07T21:35:47.745Z,2.60
2023-05-07T21:38:15.706Z,2.42
2023-05-07T21:40:43.444Z,2.33
2023-05-07T21:43:11.144Z,2.40
2023-05-07T21:45:41.155Z,2.20
2023-05-07T21:48:09.244Z,2.25
2023-05-07T21:50:37.158Z,2.50
2023-05-07T21:53:05.290Z,2.00
2023-05-07T21:55:33.175Z,2.28
2023-05-07T21:58:05.392Z,2.63
2023-05-07T22:00:34.196Z,2.40
2023-05-07T22:03:02.102Z,2.35
2023-05-07T22:05:29.973Z,2.22
2023-05-07T22:07:57.835Z,2.35
2023-05-07T22:10:25.692Z,2.33
2023-05-07T22:12:53.453Z,2.45
2023-05-07T22:15:21.732Z,2.28
2023-05-07T22:17:49.529Z,2.22
2023-05-07T22:20:17.302Z,2.22
2023-05-07T22:22:52.762Z,2.50
2023-05-07T22:25:23.128Z,2.20
2023-05-07T22:27:51.856Z,2.10
2023-05-07T22:30:19.779Z,2.20
2023-05-07T22:32:48.773Z,2.45
2023-05-07T22:35:16.689Z,2.50
2023-05-07T22:37:44.510Z,2.45
2023-05-07T22:40:12.655Z,2.30
2023-05-07T22:42:40.963Z,2.65
2023-05-07T22:45:09.419Z,2.42
2023-05-07T22:47:37.366Z,2.60
2023-05-07T22:50:06.541Z,2.60
2023-05-07T22:52:35.021Z,2.40
2023-05-07T22:55:02.889Z,2.53
2023-05-07T22:57:30.894Z,2.10
2023-05-07T22:59:58.662Z,2.38
2023-05-07T23:02:28.862Z,2.38
2023-05-07T23:05:00.607Z,2.30
2023-05-07T23:07:28.881Z,2.20
2023-05-07T23:09:56.670Z,1.90
2023-05-07T23:12:24.392Z,2.40
2023-05-07T23:14:52.146Z,2.47
2023-05-07T23:17:19.947Z,2.10
2023-05-07T23:19:47.935Z,2.45
2023-05-07T23:22:16.606Z,2.50
2023-05-07T23:24:44.797Z,2.45
2023-05-07T23:27:12.973Z,2.65
2023-05-07T23:29:40.786Z,2.40
2023-05-07T23:32:08.530Z,2.33
2023-05-07T23:34:36.214Z,2.40
2023-05-07T23:37:04.011Z,2.42
2023-05-07T23:39:31.745Z,2.42
2023-05-07T23:41:59.479Z,2.50
2023-05-07T23:44:27.167Z,2.40
2023-05-07T23:46:54.908Z,2.88
2023-05-07T23:49:22.773Z,2.35
2023-05-07T23:51:50.531Z,2.67
2023-05-07T23:54:18.325Z,2.60
2023-05-07T23:56:46.203Z,2.47
2023-05-07T23:59:13.938Z,2.90
